Time;durP1;ratioP1;P1;durP2;ratioP2;P2;SDS_P1;SDS_P2;PMS_P1;PMS_P2;Temp;Humidity;BMP_temperature;BMP_pressure;BME280_temperature;BME280_humidity;BME280_pressure;Samples;Min_cycle;Max_cycle;Signal;HPM_P1;HPM_P2
2023/07/19 00:02:23;;;;;;;5.20;3.88;;;17.40;99.90;;;;;;5008492;28;20087;-53
2023/07/19 00:04:48;;;;;;;5.68;4.53;;;17.40;99.90;;;;;;4991284;28;20370;-52
2023/07/19 00:07:14;;;;;;;6.60;4.20;;;17.40;99.90;;;;;;5007192;28;20041;-55
2023/07/19 00:09:40;;;;;;;7.55;4.70;;;17.40;99.90;;;;;;5004546;28;20073;-55
2023/07/19 00:12:06;;;;;;;7.55;4.82;;;17.40;99.90;;;;;;4991154;28;20573;-54
2023/07/19 00:14:32;;;;;;;5.53;3.70;;;17.40;99.90;;;;;;5006564;28;20713;-52
2023/07/19 00:16:57;;;;;;;5.68;3.95;;;17.40;99.90;;;;;;5006270;28;20140;-53
2023/07/19 00:19:23;;;;;;;6.78;4.32;;;17.40;99.90;;;;;;5008384;28;20045;-53
2023/07/19 00:21:49;;;;;;;5.57;4.13;;;17.40;99.90;;;;;;5006065;28;20050;-52
2023/07/19 00:24:15;;;;;;;5.97;3.63;;;17.40;99.90;;;;;;5007495;28;20152;-54
2023/07/19 00:26:41;;;;;;;6.20;3.70;;;17.40;99.90;;;;;;5005888;28;20037;-51
2023/07/19 00:29:06;;;;;;;4.75;3.88;;;17.40;99.90;;;;;;5009888;28;20071;-53
2023/07/19 00:31:33;;;;;;;12.38;3.60;;;17.40;99.90;;;;;;4991526;28;20491;-51
2023/07/19 00:33:58;;;;;;;7.07;2.90;;;17.40;99.90;;;;;;4985376;28;20060;-51
2023/07/19 00:36:24;;;;;;;7.22;2.88;;;17.40;99.90;;;;;;5007204;28;20077;-53
2023/07/19 00:38:50;;;;;;;7.10;2.88;;;17.40;99.90;;;;;;5001058;28;20049;-54
2023/07/19 00:41:18;;;;;;;4.22;2.80;;;17.40;99.90;;;;;;5008913;28;20248;-53
2023/07/19 00:43:43;;;;;;;5.20;2.65;;;17.40;99.90;;;;;;5008976;28;20037;-52
2023/07/19 00:46:10;;;;;;;5.90;2.78;;;17.40;99.90;;;;;;5009245;28;20046;-52
2023/07/19 00:48:36;;;;;;;3.40;2.90;;;17.50;99.90;;;;;;5009250;28;20571;-52
2023/07/19 00:51:02;;;;;;;7.95;2.85;;;17.50;99.90;;;;;;5007241;28;20050;-54
2023/07/19 00:53:28;;;;;;;4.90;2.80;;;17.50;99.90;;;;;;4997511;28;20042;-52
2023/07/19 00:55:55;;;;;;;6.50;3.00;;;17.50;99.90;;;;;;5011135;28;20060;-53
2023/07/19 00:58:23;;;;;;;5.55;3.00;;;17.50;99.90;;;;;;5010990;28;21424;-54
2023/07/19 01:00:51;;;;;;;6.70;3.22;;;17.50;99.90;;;;;;5008319;28;20452;-51
2023/07/19 01:03:16;;;;;;;5.03;3.00;;;17.50;99.90;;;;;;5008148;28;20057;-54
2023/07/19 01:05:43;;;;;;;6.57;3.03;;;17.50;99.90;;;;;;4979457;28;20124;-54
2023/07/19 01:08:09;;;;;;;5.45;3.00;;;17.50;99.90;;;;;;5005403;28;20044;-51
2023/07/19 01:10:35;;;;;;;10.95;3.13;;;17.50;99.90;;;;;;4994319;28;20422;-54
2023/07/19 01:13:11;;;;;;;5.68;3.17;;;17.50;99.90;;;;;;5005971;28;20053;-53
2023/07/19 01:15:37;;;;;;;8.73;3.60;;;17.50;99.90;;;;;;5003162;28;20418;-52
2023/07/19 01:18:03;;;;;;;7.80;3.40;;;17.50;99.90;;;;;;5005807;28;20056;-53
2023/07/19 01:20:29;;;;;;;8.88;3.42;;;17.50;99.90;;;;;;4989607;28;20045;-50
2023/07/19 01:22:56;;;;;;;6.43;3.00;;;17.50;99.90;;;;;;5008380;28;20040;-53
2023/07/19 01:25:22;;;;;;;7.32;3.70;;;17.50;99.90;;;;;;5005519;28;20049;-51
2023/07/19 01:27:49;;;;;;;5.57;2.72;;;17.50;99.90;;;;;;4992570;28;20045;-51
2023/07/19 01:30:15;;;;;;;7.03;2.78;;;17.50;99.90;;;;;;5008345;28;20049;-54
2023/07/19 01:32:41;;;;;;;6.20;3.10;;;17.50;99.90;;;;;;5009603;28;20049;-53
2023/07/19 01:35:07;;;;;;;5.32;3.13;;;17.50;99.90;;;;;;5007992;28;20075;-52
2023/07/19 01:37:32;;;;;;;6.03;3.03;;;17.50;99.90;;;;;;5008478;28;20979;-52
2023/07/19 01:40:00;;;;;;;7.15;3.15;;;17.50;99.90;;;;;;4997075;28;20045;-53
2023/07/19 01:42:26;;;;;;;7.38;3.53;;;17.50;99.90;;;;;;5000744;28;20179;-55
2023/07/19 01:44:54;;;;;;;5.80;3.28;;;17.50;99.90;;;;;;5010517;28;20044;-53
2023/07/19 01:47:19;;;;;;;6.18;3.25;;;17.50;99.90;;;;;;5009782;28;20056;-53
2023/07/19 01:49:45;;;;;;;6.60;3.40;;;17.50;99.90;;;;;;5009491;28;20041;-54
2023/07/19 01:52:11;;;;;;;7.28;3.50;;;17.50;99.90;;;;;;5008006;28;20064;-53
2023/07/19 01:54:37;;;;;;;9.55;3.55;;;17.50;99.90;;;;;;5011001;28;20090;-52
2023/07/19 01:57:04;;;;;;;5.35;3.20;;;17.50;99.90;;;;;;5009947;28;20041;-53
2023/07/19 01:59:29;;;;;;;6.55;3.47;;;17.50;99.90;;;;;;5006987;28;20539;-52
2023/07/19 02:01:55;;;;;;;4.88;3.30;;;17.50;99.90;;;;;;5008725;28;20495;-52
2023/07/19 02:04:21;;;;;;;5.47;3.70;;;17.50;99.90;;;;;;5005540;28;20089;-54
2023/07/19 02:06:47;;;;;;;5.45;3.60;;;17.40;99.90;;;;;;4994446;28;20081;-53
2023/07/19 02:09:13;;;;;;;5.00;3.35;;;17.40;99.90;;;;;;5005849;28;20400;-54
2023/07/19 02:11:40;;;;;;;5.80;3.33;;;17.40;99.90;;;;;;4988461;28;20057;-51
2023/07/19 02:14:05;;;;;;;8.52;3.50;;;17.40;99.90;;;;;;4993505;28;20124;-51
2023/07/19 02:16:31;;;;;;;5.30;3.42;;;17.40;99.90;;;;;;5008828;28;20111;-53
2023/07/19 02:18:57;;;;;;;4.43;3.38;;;17.40;99.90;;;;;;5007786;28;20045;-51
2023/07/19 02:21:22;;;;;;;6.38;3.53;;;17.40;99.90;;;;;;5009475;28;20077;-53
2023/07/19 02:23:48;;;;;;;8.30;3.78;;;17.40;99.90;;;;;;5008851;28;20044;-54
2023/07/19 02:26:14;;;;;;;6.95;3.80;;;17.40;99.90;;;;;;5005374;28;20084;-52
2023/07/19 02:28:40;;;;;;;6.97;3.85;;;17.30;99.90;;;;;;5007526;28;20152;-54
2023/07/19 02:31:06;;;;;;;5.28;3.55;;;17.30;99.90;;;;;;5007308;28;20055;-53
2023/07/19 02:33:32;;;;;;;9.60;4.47;;;17.30;99.90;;;;;;5008756;28;20142;-53
2023/07/19 02:35:57;;;;;;;6.65;4.28;;;17.30;99.90;;;;;;5007348;28;21685;-54
2023/07/19 02:38:25;;;;;;;5.97;4.13;;;17.30;99.90;;;;;;4990403;28;20128;-53
2023/07/19 02:40:56;;;;;;;6.10;3.90;;;17.20;99.90;;;;;;5007575;28;20050;-52
2023/07/19 02:43:22;;;;;;;5.60;3.92;;;17.20;99.90;;;;;;5002915;28;20086;-52
2023/07/19 02:45:48;;;;;;;6.45;3.67;;;17.20;99.90;;;;;;5000300;28;20037;-53
2023/07/19 02:48:14;;;;;;;5.97;3.65;;;17.10;99.90;;;;;;5009059;28;20030;-54
2023/07/19 02:50:47;;;;;;;5.55;4.18;;;17.10;99.90;;;;;;4993366;28;20487;-53
2023/07/19 02:53:14;;;;;;;7.05;4.63;;;17.10;99.90;;;;;;5011093;28;20115;-54
2023/07/19 02:55:43;;;;;;;6.97;4.78;;;17.10;99.90;;;;;;5007484;28;20141;-55
2023/07/19 02:58:09;;;;;;;7.50;4.88;;;17.10;99.90;;;;;;5009404;28;20566;-50
2023/07/19 03:00:40;;;;;;;6.65;4.50;;;17.10;99.90;;;;;;5010098;28;20060;-54
2023/07/19 03:03:06;;;;;;;8.93;4.40;;;17.10;99.90;;;;;;5008877;28;20523;-54
2023/07/19 03:05:34;;;;;;;6.05;4.25;;;17.10;99.90;;;;;;5011283;28;20041;-50
2023/07/19 03:08:01;;;;;;;6.20;3.90;;;17.10;99.90;;;;;;5010285;28;25967;-50
2023/07/19 03:10:27;;;;;;;6.05;4.63;;;17.10;99.90;;;;;;5011420;28;20892;-54
2023/07/19 03:12:53;;;;;;;8.32;5.03;;;17.10;99.90;;;;;;5008426;28;20049;-52
2023/07/19 03:15:19;;;;;;;9.02;4.40;;;17.00;99.90;;;;;;5010169;28;20102;-54
2023/07/19 03:17:44;;;;;;;5.35;4.07;;;17.00;99.90;;;;;;5006689;28;20193;-50
2023/07/19 03:20:14;;;;;;;11.05;4.50;;;17.00;99.90;;;;;;5007175;28;20049;-50
2023/07/19 03:22:40;;;;;;;8.52;4.60;;;17.00;99.90;;;;;;5006054;28;20045;-51
2023/07/19 03:25:06;;;;;;;9.88;4.47;;;17.00;99.90;;;;;;5006522;28;20488;-51
2023/07/19 03:27:32;;;;;;;7.00;4.40;;;17.00;99.90;;;;;;5004399;28;20118;-51
2023/07/19 03:29:57;;;;;;;10.10;4.93;;;17.00;99.90;;;;;;5006972;28;20042;-50
2023/07/19 03:32:23;;;;;;;8.18;4.90;;;17.00;99.90;;;;;;5004678;28;20145;-51
2023/07/19 03:34:49;;;;;;;8.23;4.20;;;16.90;99.90;;;;;;5006531;28;20104;-49
2023/07/19 03:37:14;;;;;;;4.78;4.20;;;16.90;99.90;;;;;;5005007;28;20112;-50
2023/07/19 03:39:40;;;;;;;6.07;4.32;;;16.90;99.90;;;;;;5007811;28;20049;-50
2023/07/19 03:42:07;;;;;;;7.82;4.80;;;16.90;99.90;;;;;;5004848;28;20053;-51
2023/07/19 03:44:32;;;;;;;8.88;5.15;;;16.90;99.90;;;;;;5006097;28;20403;-52
2023/07/19 03:46:58;;;;;;;7.40;5.07;;;16.90;99.90;;;;;;4994588;28;20102;-51
2023/07/19 03:49:24;;;;;;;10.23;4.88;;;16.90;99.90;;;;;;5006899;28;20041;-50
2023/07/19 03:51:49;;;;;;;6.22;4.47;;;16.90;99.90;;;;;;5000988;28;20045;-49
2023/07/19 03:54:17;;;;;;;8.50;5.38;;;16.80;99.90;;;;;;5007506;28;20057;-50
2023/07/19 03:56:43;;;;;;;8.00;4.90;;;16.80;99.90;;;;;;4989234;28;20042;-51
2023/07/19 03:59:09;;;;;;;7.38;5.10;;;16.80;99.90;;;;;;5006644;28;20080;-52
2023/07/19 04:01:36;;;;;;;14.20;5.90;;;16.80;99.90;;;;;;5005264;28;20049;-49
2023/07/19 04:04:03;;;;;;;9.18;5.60;;;16.80;99.90;;;;;;5006859;28;20042;-51
2023/07/19 04:06:29;;;;;;;7.40;5.70;;;16.80;99.90;;;;;;5004785;28;20417;-51
2023/07/19 04:08:55;;;;;;;6.95;5.35;;;16.80;99.90;;;;;;5007860;28;20037;-50
2023/07/19 04:11:21;;;;;;;8.15;6.18;;;16.80;99.90;;;;;;5001554;28;20095;-52
2023/07/19 04:13:47;;;;;;;8.82;5.78;;;16.70;99.90;;;;;;5008254;28;21673;-49
2023/07/19 04:16:13;;;;;;;9.32;5.78;;;16.70;99.90;;;;;;5005728;28;20084;-50
2023/07/19 04:18:38;;;;;;;8.98;6.43;;;16.70;99.90;;;;;;5003098;28;20412;-53
2023/07/19 04:21:04;;;;;;;11.27;6.43;;;16.70;99.90;;;;;;5007164;28;20132;-54
2023/07/19 04:23:30;;;;;;;10.27;6.72;;;16.70;99.90;;;;;;5006166;28;20033;-51
2023/07/19 04:25:56;;;;;;;9.93;5.70;;;16.70;99.90;;;;;;5005744;28;20042;-51
2023/07/19 04:28:22;;;;;;;7.82;6.45;;;16.70;99.90;;;;;;5007297;28;20041;-51
2023/07/19 04:30:47;;;;;;;10.07;6.28;;;16.70;99.90;;;;;;5005821;28;20044;-51
2023/07/19 04:33:14;;;;;;;10.55;6.55;;;16.70;99.90;;;;;;5006616;28;20045;-53
2023/07/19 04:35:41;;;;;;;8.50;6.57;;;16.70;99.90;;;;;;4991369;28;20519;-49
2023/07/19 04:38:07;;;;;;;12.50;6.72;;;16.80;99.90;;;;;;5011607;28;20037;-51
2023/07/19 04:40:32;;;;;;;9.98;7.07;;;16.80;99.90;;;;;;5008175;28;20431;-52
2023/07/19 04:42:59;;;;;;;13.77;7.50;;;16.80;99.90;;;;;;5010927;28;20459;-52
2023/07/19 04:45:25;;;;;;;10.80;7.45;;;16.80;99.90;;;;;;5010634;28;20580;-50
2023/07/19 04:47:51;;;;;;;9.07;6.65;;;16.80;99.90;;;;;;5005641;28;20050;-52
2023/07/19 04:50:17;;;;;;;8.90;7.30;;;16.80;99.90;;;;;;5004511;28;20049;-51
2023/07/19 04:52:46;;;;;;;10.70;6.82;;;16.80;99.90;;;;;;4998828;28;20068;-53
2023/07/19 04:55:12;;;;;;;10.98;7.10;;;16.80;99.90;;;;;;4996461;28;20060;-52
2023/07/19 04:57:38;;;;;;;9.73;6.93;;;16.80;99.90;;;;;;5009888;28;20517;-51
2023/07/19 05:00:11;;;;;;;9.52;7.43;;;16.80;99.90;;;;;;5010886;28;20515;-50
2023/07/19 05:02:38;;;;;;;9.93;7.10;;;16.80;99.90;;;;;;4994440;28;20407;-53
2023/07/19 05:05:05;;;;;;;12.40;6.93;;;16.80;99.90;;;;;;4989065;28;20053;-50
2023/07/19 05:07:34;;;;;;;9.68;7.07;;;16.80;99.90;;;;;;5007265;28;20041;-51
2023/07/19 05:10:00;;;;;;;9.73;6.88;;;16.80;99.90;;;;;;4992819;28;20835;-51
2023/07/19 05:12:26;;;;;;;10.40;6.95;;;16.80;99.90;;;;;;5002326;28;20045;-52
2023/07/19 05:14:52;;;;;;;11.68;7.03;;;16.80;99.90;;;;;;4985321;28;20068;-49
2023/07/19 05:17:18;;;;;;;8.45;6.53;;;16.80;99.90;;;;;;5007959;28;20515;-54
2023/07/19 05:19:44;;;;;;;8.63;6.25;;;16.80;99.90;;;;;;5007643;28;20048;-49
2023/07/19 05:22:10;;;;;;;8.13;5.85;;;16.80;99.90;;;;;;5007591;28;20050;-51
2023/07/19 05:24:36;;;;;;;10.13;6.07;;;16.90;99.90;;;;;;5000263;28;20046;-50
2023/07/19 05:27:02;;;;;;;9.48;5.75;;;16.90;99.90;;;;;;5004126;28;20455;-51
2023/07/19 05:29:28;;;;;;;8.20;5.55;;;16.90;99.90;;;;;;5010901;28;20485;-51
2023/07/19 05:31:54;;;;;;;12.00;5.78;;;16.90;99.90;;;;;;5007399;28;20044;-54
2023/07/19 05:34:21;;;;;;;7.22;5.47;;;16.90;99.90;;;;;;4988666;28;20050;-52
2023/07/19 05:36:47;;;;;;;7.05;5.30;;;16.90;99.90;;;;;;5007851;28;20065;-52
2023/07/19 05:39:13;;;;;;;10.55;5.65;;;17.00;99.90;;;;;;5005775;28;20131;-51
2023/07/19 05:41:39;;;;;;;9.38;5.70;;;17.00;99.90;;;;;;5004966;28;20095;-52
2023/07/19 05:44:05;;;;;;;8.75;5.60;;;17.00;99.90;;;;;;5010854;28;20042;-52
2023/07/19 05:46:33;;;;;;;9.75;5.35;;;17.00;99.90;;;;;;5001512;28;20738;-51
2023/07/19 05:48:59;;;;;;;8.82;5.47;;;17.00;99.90;;;;;;5005615;28;20037;-53
2023/07/19 05:51:24;;;;;;;13.85;5.55;;;17.00;99.90;;;;;;4991753;28;20394;-54
2023/07/19 05:53:50;;;;;;;10.27;5.68;;;17.00;99.90;;;;;;5006113;28;20049;-49
2023/07/19 05:56:16;;;;;;;9.50;5.88;;;17.00;99.90;;;;;;5007796;28;20378;-52
2023/07/19 05:58:42;;;;;;;10.45;5.40;;;17.00;99.90;;;;;;4989274;28;20135;-52
2023/07/19 06:01:09;;;;;;;8.75;5.32;;;17.00;99.90;;;;;;5002200;28;20428;-51
2023/07/19 06:03:36;;;;;;;8.27;5.40;;;17.10;99.90;;;;;;4992321;28;20773;-50
2023/07/19 06:06:05;;;;;;;10.93;4.85;;;17.10;99.90;;;;;;4985597;28;20176;-51
2023/07/19 06:08:32;;;;;;;10.93;5.07;;;17.10;99.90;;;;;;5001843;28;20048;-53
2023/07/19 06:10:58;;;;;;;6.75;4.07;;;17.10;99.90;;;;;;4996671;28;20049;-50
2023/07/19 06:13:24;;;;;;;8.30;3.90;;;17.10;99.90;;;;;;5010874;28;20041;-52
2023/07/19 06:15:50;;;;;;;9.23;4.25;;;17.00;99.90;;;;;;5008189;28;20049;-51
2023/07/19 06:18:16;;;;;;;5.25;3.38;;;17.00;99.90;;;;;;5011273;28;20496;-51
2023/07/19 06:20:42;;;;;;;5.47;3.25;;;17.00;99.90;;;;;;5010314;28;20064;-51
2023/07/19 06:23:08;;;;;;;7.32;3.17;;;17.00;99.90;;;;;;5009382;28;20068;-54
2023/07/19 06:25:33;;;;;;;4.72;3.00;;;17.00;99.90;;;;;;5009877;28;20728;-50
2023/07/19 06:27:59;;;;;;;5.72;2.67;;;16.90;99.90;;;;;;5007380;28;20045;-51
2023/07/19 06:30:25;;;;;;;6.53;2.88;;;16.90;99.90;;;;;;5009450;28;20042;-50
2023/07/19 06:32:51;;;;;;;6.18;2.70;;;16.90;99.90;;;;;;5008374;28;20866;-51
2023/07/19 06:35:17;;;;;;;5.78;2.90;;;16.90;99.90;;;;;;4971584;28;1117818;-52
2023/07/19 06:37:43;;;;;;;7.72;2.60;;;16.90;99.90;;;;;;4987303;28;20050;-53
2023/07/19 06:40:09;;;;;;;4.90;3.03;;;16.90;99.90;;;;;;5010179;28;20553;-49
2023/07/19 06:42:36;;;;;;;4.90;2.88;;;17.00;99.90;;;;;;5011065;28;20048;-50
2023/07/19 06:45:11;;;;;;;9.32;3.20;;;17.00;99.90;;;;;;5006731;28;20403;-51
2023/07/19 06:47:37;;;;;;;9.88;2.90;;;17.10;99.90;;;;;;5007690;28;20033;-50
2023/07/19 06:50:03;;;;;;;5.47;3.05;;;17.10;99.90;;;;;;4993641;28;20103;-53
2023/07/19 06:52:29;;;;;;;6.22;2.90;;;17.20;99.90;;;;;;5009517;28;20045;-51
2023/07/19 06:54:55;;;;;;;5.90;2.83;;;17.10;99.90;;;;;;5011174;28;20055;-51
2023/07/19 06:57:21;;;;;;;6.20;2.88;;;17.20;99.90;;;;;;5010783;28;20053;-54
2023/07/19 06:59:49;;;;;;;6.50;2.95;;;17.20;99.90;;;;;;5012666;28;20060;-51
2023/07/19 07:02:18;;;;;;;4.20;2.88;;;17.30;99.90;;;;;;5012316;28;20400;-51
2023/07/19 07:04:45;;;;;;;7.70;3.10;;;17.30;99.90;;;;;;5012288;28;20140;-51
2023/07/19 07:07:11;;;;;;;5.60;3.20;;;17.30;99.90;;;;;;5011948;28;20038;-52
2023/07/19 07:09:37;;;;;;;8.23;3.10;;;17.40;99.90;;;;;;5012154;28;20750;-52
2023/07/19 07:12:04;;;;;;;9.10;3.38;;;17.40;99.90;;;;;;5012681;28;20427;-53
2023/07/19 07:14:29;;;;;;;8.70;3.13;;;17.50;99.90;;;;;;5012394;28;20049;-54
2023/07/19 07:16:55;;;;;;;9.00;2.97;;;17.60;99.90;;;;;;5011837;28;20115;-51
2023/07/19 07:19:21;;;;;;;7.40;3.00;;;17.60;99.90;;;;;;5011205;28;20515;-49
2023/07/19 07:21:46;;;;;;;9.57;2.97;;;17.60;99.90;;;;;;5009925;28;20050;-53
2023/07/19 07:24:12;;;;;;;6.63;2.47;;;17.60;99.90;;;;;;5009705;28;20612;-49
2023/07/19 07:26:38;;;;;;;13.27;3.53;;;17.70;99.90;;;;;;4995973;28;20037;-50
2023/07/19 07:29:04;;;;;;;6.60;2.53;;;17.70;99.90;;;;;;5006319;28;20092;-53
2023/07/19 07:31:32;;;;;;;9.27;2.90;;;17.70;99.90;;;;;;5008946;28;20046;-52
2023/07/19 07:33:58;;;;;;;7.07;2.70;;;17.70;99.90;;;;;;5011942;28;20053;-52
2023/07/19 07:36:24;;;;;;;8.55;2.70;;;17.80;99.90;;;;;;5006320;28;20470;-50
2023/07/19 07:38:50;;;;;;;3.25;2.08;;;17.90;99.90;;;;;;5001110;28;20546;-50
2023/07/19 07:41:16;;;;;;;6.40;2.22;;;18.00;99.90;;;;;;5011919;28;20980;-52
2023/07/19 07:43:42;;;;;;;6.15;2.13;;;18.10;99.90;;;;;;5012242;28;20065;-50
2023/07/19 07:46:08;;;;;;;6.95;3.05;;;18.20;99.90;;;;;;5002411;28;20064;-54
2023/07/19 07:48:34;;;;;;;3.80;2.40;;;18.20;99.90;;;;;;5011031;28;20037;-52
2023/07/19 07:51:00;;;;;;;5.50;2.47;;;18.30;99.90;;;;;;5008951;28;20045;-52
2023/07/19 07:53:26;;;;;;;7.47;3.10;;;18.30;99.90;;;;;;5009282;28;20037;-54
2023/07/19 07:55:52;;;;;;;5.82;2.83;;;18.20;99.90;;;;;;5009322;28;20069;-52
2023/07/19 07:58:18;;;;;;;8.18;2.78;;;18.30;99.90;;;;;;5011592;28;20079;-49
2023/07/19 08:00:44;;;;;;;4.57;2.25;;;18.40;99.90;;;;;;5012743;28;20046;-50
2023/07/19 08:03:10;;;;;;;6.45;2.88;;;18.40;99.90;;;;;;5014491;28;20120;-52
2023/07/19 08:05:37;;;;;;;5.72;2.67;;;18.40;99.90;;;;;;5013245;28;20105;-53
2023/07/19 08:08:05;;;;;;;6.10;2.53;;;18.40;99.90;;;;;;5010925;28;20069;-49
2023/07/19 08:10:32;;;;;;;7.72;2.97;;;18.50;99.90;;;;;;4996959;28;20048;-51
2023/07/19 08:12:57;;;;;;;5.85;2.55;;;18.60;99.90;;;;;;5013588;28;20053;-54
2023/07/19 08:15:23;;;;;;;5.97;2.55;;;18.80;99.90;;;;;;5012086;28;20115;-53
2023/07/19 08:17:49;;;;;;;5.40;2.55;;;18.90;99.90;;;;;;5015863;28;20174;-51
2023/07/19 08:20:15;;;;;;;6.45;2.83;;;19.10;99.90;;;;;;4994479;28;20451;-48
2023/07/19 08:22:41;;;;;;;4.47;1.95;;;19.30;99.90;;;;;;5010353;28;20045;-52
2023/07/19 08:25:07;;;;;;;5.03;1.95;;;19.40;99.90;;;;;;5013326;28;20484;-50
2023/07/19 08:27:33;;;;;;;5.85;2.03;;;19.60;99.90;;;;;;5013271;28;20083;-54
2023/07/19 08:30:05;;;;;;;6.05;1.92;;;19.70;99.90;;;;;;5013001;28;20034;-51
2023/07/19 08:32:33;;;;;;;4.45;2.50;;;19.70;99.90;;;;;;5014826;28;20124;-52
2023/07/19 08:35:00;;;;;;;3.97;1.98;;;19.80;99.90;;;;;;5015085;28;20492;-53
2023/07/19 08:37:26;;;;;;;5.30;1.75;;;20.00;99.90;;;;;;5012664;28;20054;-51
2023/07/19 08:39:51;;;;;;;6.72;2.22;;;20.30;99.90;;;;;;5013595;28;20053;-50
2023/07/19 08:42:17;;;;;;;4.90;1.90;;;20.60;99.90;;;;;;5007059;28;20065;-51
2023/07/19 08:44:43;;;;;;;4.47;1.90;;;20.80;99.90;;;;;;5010410;28;20037;-52
2023/07/19 08:47:11;;;;;;;4.22;1.52;;;20.80;99.90;;;;;;5009395;28;20033;-51
2023/07/19 08:49:38;;;;;;;4.72;1.63;;;20.80;99.90;;;;;;4973001;28;20476;-50
2023/07/19 08:52:07;;;;;;;6.47;1.67;;;20.60;99.90;;;;;;5013995;28;20054;-50
2023/07/19 08:54:32;;;;;;;4.43;1.50;;;20.40;99.90;;;;;;5010503;28;20395;-51
2023/07/19 08:56:58;;;;;;;5.07;1.67;;;20.20;99.90;;;;;;5014111;28;20038;-50
2023/07/19 08:59:25;;;;;;;5.53;1.73;;;20.00;99.90;;;;;;5014755;28;20037;-50
2023/07/19 09:01:51;;;;;;;8.38;1.70;;;19.80;99.90;;;;;;4992022;28;20125;-50
2023/07/19 09:04:17;;;;;;;4.18;1.70;;;19.70;99.90;;;;;;5015117;28;20480;-50
2023/07/19 09:06:42;;;;;;;4.43;1.70;;;19.50;99.90;;;;;;5012850;28;20036;-51
2023/07/19 09:09:09;;;;;;;9.63;1.85;;;19.50;99.90;;;;;;5008875;28;20104;-52
2023/07/19 09:11:35;;;;;;;3.20;2.10;;;19.50;99.90;;;;;;5011721;28;20048;-51
2023/07/19 09:14:01;;;;;;;7.25;2.30;;;19.60;99.90;;;;;;5012166;28;20049;-50
2023/07/19 09:16:32;;;;;;;6.65;2.95;;;19.60;99.90;;;;;;5015843;28;20042;-51
2023/07/19 09:19:00;;;;;;;3.83;2.20;;;19.70;99.90;;;;;;5016648;28;20038;-49
2023/07/19 09:21:37;;;;;;;4.32;2.05;;;19.70;99.90;;;;;;5014455;28;20037;-51
2023/07/19 09:24:04;;;;;;;1.85;1.65;;;19.70;99.90;;;;;;5019323;28;20045;-51
2023/07/19 09:26:50;;;;;;;7.63;2.13;;;19.60;99.90;;;;;;5018442;28;20476;-52
2023/07/19 09:29:17;;;;;;;4.47;1.75;;;19.50;99.90;;;;;;5017715;28;20069;-51
2023/07/19 09:31:49;;;;;;;5.18;2.10;;;19.40;99.90;;;;;;5014543;28;20046;-54
2023/07/19 09:34:15;;;;;;;2.97;1.60;;;19.40;99.90;;;;;;5013697;28;20539;-49
2023/07/19 09:36:41;;;;;;;7.93;2.33;;;19.60;99.90;;;;;;5010072;28;20313;-52
2023/07/19 09:39:06;;;;;;;4.18;2.13;;;19.90;99.90;;;;;;5013028;28;20053;-51
2023/07/19 09:41:33;;;;;;;3.42;1.50;;;20.00;99.90;;;;;;5011677;28;20037;-50
2023/07/19 09:44:00;;;;;;;6.45;1.92;;;19.90;99.90;;;;;;5007367;28;20120;-51
2023/07/19 09:46:26;;;;;;;3.85;1.50;;;19.80;99.90;;;;;;4993861;28;20040;-51
2023/07/19 09:48:52;;;;;;;3.70;1.65;;;19.70;99.90;;;;;;5012879;28;20042;-52
2023/07/19 09:51:19;;;;;;;3.67;1.95;;;19.70;99.90;;;;;;4992295;28;20130;-50
2023/07/19 09:53:46;;;;;;;3.20;1.95;;;19.80;99.90;;;;;;5010343;28;20056;-50
2023/07/19 09:56:11;;;;;;;3.30;2.10;;;20.10;99.90;;;;;;5010499;28;20042;-50
2023/07/19 09:58:39;;;;;;;3.80;1.73;;;20.30;99.90;;;;;;5007374;28;20041;-52
2023/07/19 10:01:05;;;;;;;4.40;1.60;;;20.50;99.90;;;;;;5011862;28;20038;-49
2023/07/19 10:03:36;;;;;;;5.63;1.63;;;20.50;99.90;;;;;;5009174;28;20030;-50
2023/07/19 10:06:02;;;;;;;4.18;1.70;;;20.40;99.90;;;;;;4992496;28;20037;-51
2023/07/19 10:08:28;;;;;;;4.03;1.77;;;20.30;99.90;;;;;;5010939;28;20500;-52
2023/07/19 10:11:00;;;;;;;3.95;1.95;;;20.20;99.90;;;;;;5011495;28;20060;-51
2023/07/19 10:13:49;;;;;;;5.38;1.70;;;20.10;99.90;;;;;;5013087;28;20049;-51
2023/07/19 10:16:23;;;;;;;5.13;2.00;;;20.10;99.90;;;;;;5011439;28;20524;-51
2023/07/19 10:19:09;;;;;;;5.15;2.08;;;20.10;99.90;;;;;;5009736;28;20445;-51
2023/07/19 10:21:35;;;;;;;4.07;2.00;;;20.20;99.90;;;;;;5009106;28;20050;-51
2023/07/19 10:24:07;;;;;;;4.28;1.80;;;20.40;99.90;;;;;;5010001;28;20041;-49
2023/07/19 10:26:36;;;;;;;4.75;1.50;;;20.50;99.90;;;;;;5006752;28;20837;-53
2023/07/19 10:29:04;;;;;;;4.43;1.60;;;20.60;99.90;;;;;;5009478;28;20049;-53
2023/07/19 10:31:32;;;;;;;5.38;1.80;;;20.70;99.90;;;;;;5010502;28;20049;-52
2023/07/19 10:33:57;;;;;;;2.70;1.55;;;20.70;99.90;;;;;;4990913;28;20049;-52
2023/07/19 10:36:23;;;;;;;5.38;1.58;;;20.70;99.90;;;;;;5011721;28;20123;-53
2023/07/19 10:38:49;;;;;;;3.08;1.30;;;20.70;99.90;;;;;;5009410;28;20049;-50
2023/07/19 10:41:15;;;;;;;3.47;1.38;;;20.80;99.90;;;;;;4988089;28;20115;-51
2023/07/19 10:43:41;;;;;;;4.20;1.40;;;20.90;99.90;;;;;;4993112;28;20491;-54
2023/07/19 10:46:08;;;;;;;3.80;1.63;;;21.20;99.90;;;;;;5009417;28;20699;-51
2023/07/19 10:48:38;;;;;;;3.58;1.33;;;21.30;99.90;;;;;;4990537;28;20041;-53
2023/07/19 10:51:05;;;;;;;2.53;1.20;;;21.40;99.80;;;;;;5008030;28;20055;-51
2023/07/19 10:54:00;;;;;;;4.32;1.20;;;21.50;99.40;;;;;;5006244;28;20053;-51
2023/07/19 10:56:27;;;;;;;4.18;1.10;;;21.60;99.40;;;;;;4977556;28;20144;-53
2023/07/19 10:58:58;;;;;;;3.22;1.33;;;21.70;99.00;;;;;;5010124;28;20182;-51
2023/07/19 11:01:26;;;;;;;4.53;1.00;;;21.80;98.60;;;;;;5011110;28;20095;-50
2023/07/19 11:03:51;;;;;;;2.53;1.10;;;22.00;98.60;;;;;;4979079;28;20590;-49
2023/07/19 11:06:17;;;;;;;3.60;1.42;;;22.20;98.20;;;;;;5011213;28;20045;-50
2023/07/19 11:08:44;;;;;;;3.45;1.30;;;22.30;98.10;;;;;;5010152;28;20095;-54
2023/07/19 11:11:12;;;;;;;2.67;1.27;;;22.60;97.60;;;;;;5010157;28;20080;-52
2023/07/19 11:13:38;;;;;;;3.45;1.23;;;22.80;96.90;;;;;;5012593;28;20515;-54
2023/07/19 11:16:04;;;;;;;4.70;1.30;;;23.00;96.30;;;;;;5007823;28;20045;-50
2023/07/19 11:18:36;;;;;;;2.20;1.15;;;23.30;95.80;;;;;;5003636;28;20103;-51
2023/07/19 11:21:03;;;;;;;5.75;1.20;;;23.50;95.70;;;;;;5006239;28;20049;-50
2023/07/19 11:23:30;;;;;;;1.08;0.70;;;23.60;94.90;;;;;;5008509;28;20065;-54
2023/07/19 11:26:07;;;;;;;2.58;1.02;;;23.60;94.70;;;;;;5009017;28;20041;-53
2023/07/19 11:28:44;;;;;;;1.35;0.90;;;23.80;94.00;;;;;;4994690;28;20571;-51
2023/07/19 11:31:26;;;;;;;2.47;1.10;;;23.70;93.70;;;;;;5009885;28;20091;-50
2023/07/19 11:34:16;;;;;;;5.07;1.33;;;23.70;93.60;;;;;;5010276;28;20041;-50
2023/07/19 11:36:44;;;;;;;3.60;1.02;;;23.60;93.60;;;;;;5009606;28;20392;-52
2023/07/19 11:39:22;;;;;;;1.92;1.08;;;23.70;93.20;;;;;;5006186;28;20038;-52
2023/07/19 11:41:48;;;;;;;3.20;1.08;;;23.80;92.60;;;;;;5001333;28;20046;-51
2023/07/19 11:44:14;;;;;;;6.00;1.42;;;24.00;92.50;;;;;;5007682;28;20084;-54
2023/07/19 11:46:40;;;;;;;4.80;1.13;;;24.10;92.00;;;;;;5007842;28;20136;-53
2023/07/19 11:49:09;;;;;;;1.52;0.90;;;24.00;91.80;;;;;;4979091;28;20041;-53
2023/07/19 11:51:35;;;;;;;4.45;0.90;;;24.00;91.70;;;;;;5009568;28;20234;-54
2023/07/19 11:54:01;;;;;;;2.95;0.90;;;24.10;91.50;;;;;;5008425;28;20692;-53
2023/07/19 11:56:28;;;;;;;2.15;0.93;;;24.10;91.10;;;;;;5005892;28;20052;-52
2023/07/19 11:58:53;;;;;;;4.75;1.25;;;24.00;90.80;;;;;;5005812;28;20049;-53
2023/07/19 12:01:21;;;;;;;1.20;0.95;;;23.90;90.70;;;;;;5007854;28;20041;-54
2023/07/19 12:03:47;;;;;;;4.30;1.15;;;24.10;90.50;;;;;;5005139;28;20470;-54
2023/07/19 12:06:14;;;;;;;2.75;1.13;;;24.30;90.20;;;;;;5006116;28;20045;-54
2023/07/19 12:08:44;;;;;;;1.70;1.17;;;24.30;89.60;;;;;;5004780;28;20095;-53
2023/07/19 12:11:10;;;;;;;2.83;1.00;;;24.30;89.60;;;;;;5006059;28;20043;-51
2023/07/19 12:13:36;;;;;;;2.47;1.10;;;24.30;90.10;;;;;;5008755;28;20044;-53
2023/07/19 12:16:02;;;;;;;5.75;1.08;;;24.20;88.10;;;;;;4986857;28;20747;-50
2023/07/19 12:18:29;;;;;;;3.22;0.90;;;24.10;88.70;;;;;;5004820;28;20056;-50
2023/07/19 12:20:56;;;;;;;1.98;0.90;;;24.10;87.60;;;;;;5003788;28;20067;-51
2023/07/19 12:23:22;;;;;;;2.47;1.00;;;24.00;87.80;;;;;;5002769;28;20080;-51
2023/07/19 12:25:48;;;;;;;1.67;0.95;;;23.90;87.00;;;;;;4989764;28;20500;-54
2023/07/19 12:28:14;;;;;;;1.83;0.93;;;23.80;87.60;;;;;;5003595;28;20046;-50
2023/07/19 12:30:41;;;;;;;2.00;0.90;;;23.60;87.10;;;;;;5005149;28;20350;-52
2023/07/19 12:33:07;;;;;;;1.55;0.82;;;23.40;86.80;;;;;;5001733;28;20030;-52
2023/07/19 12:35:32;;;;;;;1.13;0.70;;;23.20;88.00;;;;;;5000486;28;20435;-52
2023/07/19 12:37:58;;;;;;;2.67;0.88;;;23.20;88.60;;;;;;5002657;28;20514;-52
2023/07/19 12:40:24;;;;;;;1.02;0.80;;;23.40;88.80;;;;;;4989785;28;20057;-51
2023/07/19 12:42:49;;;;;;;1.90;0.93;;;23.50;88.70;;;;;;5007361;28;20314;-51
2023/07/19 12:45:17;;;;;;;2.05;0.73;;;23.40;88.10;;;;;;4975575;28;20045;-50